Date,TemperatureHighF,TemperatureAvgF,TemperatureLowF,DewpointHighF,DewpointAvgF,DewpointLowF,HumidityHigh,HumidityAvg,HumidityLow,PressureMaxIn,PressureMinIn,WindSpeedMaxMPH,WindSpeedAvgMPH,GustSpeedMaxMPH,PrecipitationSumIn
2013-10-1,82.8,64.0,51.6,53.0,45.3,18.9,96,61,10,29.87,29.74,11,2,19,0.00
2013-10-2,87.8,67.4,50.2,59.0,48.0,26.8,99,61,12,29.87,29.76,14,2,20,0.00
2013-10-3,86.0,67.3,53.1,59.9,52.8,37.5,99,68,18,29.95,29.82,5,1,9,0.00
2013-10-4,89.8,68.6,59.9,67.8,61.5,46.9,99,82,23,29.89,29.79,13,1,20,0.14
2013-10-5,89.6,71.7,61.7,71.3,60.9,45.6,99,76,23,29.91,29.78,8,1,11,0.14
2013-10-6,85.3,75.8,65.8,72.4,61.2,53.3,99,62,34,29.82,29.70,13,5,21,0.01
2013-10-7,76.5,65.5,52.2,64.2,50.8,28.0,95,61,29,29.86,29.45,17,4,30,0.97
2013-10-8,75.6,55.2,41.9,50.6,34.1,8.5,99,58,10,30.14,29.86,11,1,16,0.00
2013-10-9,66.4,52.6,41.4,45.3,34.4,14.3,99,60,14,30.22,30.09,7,1,8,0.00
2013-10-10,61.3,51.5,44.4,51.4,42.8,26.9,99,76,29,30.10,29.91,5,0,8,1.23
2013-10-11,67.6,58.0,50.7,58.0,51.1,42.5,99,79,50,29.91,29.83,9,1,12,0.81
2013-10-12,79.9,64.0,53.6,57.0,36.7,9.7,99,50,10,30.03,29.87,11,1,15,0.00
2013-10-13,72.9,62.0,52.2,49.4,39.5,26.9,84,47,18,30.14,30.03,6,1,10,0.00
2013-10-14,70.7,59.4,48.7,52.1,42.7,27.2,97,60,21,30.17,30.03,6,1,8,0.00
2013-10-15,79.0,60.3,48.6,58.2,43.8,20.0,99,63,12,30.06,29.88,6,1,9,0.00
2013-10-16,67.5,59.4,51.8,54.9,46.0,37.3,81,62,46,29.88,29.69,7,1,10,0.00
2013-10-17,77.0,65.2,58.8,62.9,51.4,30.8,99,66,19,29.72,29.44,14,2,23,0.25
2013-10-18,68.2,55.0,42.3,43.9,30.0,5.7,85,44,10,29.80,29.58,16,4,30,0.07
2013-10-19,61.5,48.9,35.4,51.0,39.4,30.5,97,74,33,29.80,29.54,12,1,19,0.07
2013-10-20,65.8,51.1,39.0,33.9,23.6,2.7,80,40,10,29.87,29.64,13,3,22,0.00
2013-10-21,71.4,51.8,34.2,37.9,22.8,4.2,93,46,10,29.94,29.72,8,2,14,0.00
2013-10-22,66.2,53.2,39.6,36.4,22.5,-2.3,58,35,10,29.72,29.60,13,2,21,0.00
2013-10-23,50.0,42.5,35.1,29.0,23.8,9.1,71,50,20,29.65,29.50,10,2,14,0.00
2013-10-24,50.2,43.0,35.4,29.4,14.3,-5.8,69,36,10,29.86,29.64,17,4,26,0.32
2013-10-25,55.4,43.3,33.3,25.8,17.1,-1.6,68,38,10,30.05,29.86,13,3,21,0.00
2013-10-26,56.7,42.7,26.6,30.4,10.6,-3.8,89,40,10,30.05,29.69,14,2,21,0.01
2013-10-27,55.4,47.2,33.3,23.5,11.2,-3.3,67,26,10,29.94,29.70,14,4,23,0.00
2013-10-28,67.8,44.1,27.3,28.0,18.7,2.1,85,47,10,30.12,29.93,8,1,12,0.00
2013-10-29,64.2,46.5,33.1,35.9,21.4,2.1,88,45,10,30.23,30.11,7,1,10,0.00
2013-10-30,73.8,50.9,37.8,41.1,28.0,8.8,84,48,10,30.12,29.92,5,1,8,0.00
2013-10-31,65.1,56.6,46.0,60.0,51.8,41.2,99,84,75,29.99,29.49,9,1,15,0.25